Etusivu
Satelliittikuvat 10 päivän ennusteetIlmastoMerisää Syklonit Salamointi LentoasematUKK Uutiskirje Muuta
Sää : Eurooppa Afrikka Pohjois-Amerikka Etelä-Amerikka Aasia Australia-Oseania Muut
Kielet Yhteydenotto

Kittilä, Suomi

Kittilän lentoasema

Leveyspiiri: 67-42N, Pituuspiiri: 024-51E, korkeus merenpinnasta: 196 m


METAR: EFKT 011950Z AUTO 33005KT 9999 FEW012 OVC032 11/11 Q1007
TAF: EFKT 010835Z 0109/0111 01007KT 9999 BKN015 TEMPO 0109/0111 7000 -RADZ BKN005

Aika: 23:11 (20:11 UTC)

Tämänhetkinen sää

Tämä raportti tehtiin 21 minuuttia sitten, kello 19.50 UTC
Tuuli 5 kn pohjoisen/luoteesta
Lämpötila 11°C
Kosteus 100%
Ilmanpaine 1007 hPa
Näkyvyys 10 km tai enemmän
Muutamia pilviä 1200 ft:n korkeudessa
Pilvistä 3200 ft:n korkeudessa

Muuta yksikköjä

Sääennuste

Tämä raportti tehtiin 11 tuntia ja 36 minuuttia sitten, kello 08.35 UTC
Ennuste voimassa 01. päivästä klo 09 UTC - 01. päivään klo 11 UTC
Tuuli 7 kn pohjoisesta
Näkyvyys 10 km tai enemmän
Hajonneita pilviä 1500 ft:n korkeudessa
Ajoittain
01. päivästä klo 09 UTC - 01. päivään klo 11 UTC
Näkyvyys: 7000 m
Hajonneita pilviä 500 ft:n korkeudessa
heikkoa sadetta, tihkusadetta
Tällä sivustolla oleviin tietoihin sovelletaan vastuuvapauslauseketta
Sää : Eurooppa Afrikka Pohjois-Amerikka Etelä-Amerikka Aasia Australia-Oseania Muut
Satelliittikuvat 10 päivän ennusteetIlmastoMerisää Syklonit Salamointi LentoasematUKK Kielet Yhteydenotto Uutiskirje Muuta